sensor_id;sensor_type;location;lat;lon;timestamp;noise_LAeq;noise_LA_min;noise_LA_max;noise_LA01;noise_LA95
66589;Laerm;53447;49.272;11.070;2023-12-14T00:02:18;43.43;41.59;45.86;;
66589;Laerm;53447;49.272;11.070;2023-12-14T00:04:43;43.08;41.32;45.47;;
66589;Laerm;53447;49.272;11.070;2023-12-14T00:07:09;42.84;41.03;46.96;;
66589;Laerm;53447;49.272;11.070;2023-12-14T00:09:35;42.89;41.32;46.00;;
66589;Laerm;53447;49.272;11.070;2023-12-14T00:12:00;42.81;41.15;44.93;;
66589;Laerm;53447;49.272;11.070;2023-12-14T00:14:26;42.84;40.91;45.43;;
66589;Laerm;53447;49.272;11.070;2023-12-14T00:16:51;42.75;41.03;45.62;;
66589;Laerm;53447;49.272;11.070;2023-12-14T00:19:17;42.79;41.03;47.19;;
66589;Laerm;53447;49.272;11.070;2023-12-14T00:21:43;42.87;40.97;46.00;;
66589;Laerm;53447;49.272;11.070;2023-12-14T00:24:08;43.65;41.94;46.33;;
66589;Laerm;53447;49.272;11.070;2023-12-14T00:26:34;44.00;42.40;47.64;;
66589;Laerm;53447;49.272;11.070;2023-12-14T00:28:59;44.33;42.13;49.77;;
66589;Laerm;53447;49.272;11.070;2023-12-14T00:31:24;44.78;43.01;49.86;;
66589;Laerm;53447;49.272;11.070;2023-12-14T00:33:50;44.70;42.22;48.80;;
66589;Laerm;53447;49.272;11.070;2023-12-14T00:36:19;44.94;42.89;50.30;;
66589;Laerm;53447;49.272;11.070;2023-12-14T00:38:44;44.88;43.12;48.77;;
66589;Laerm;53447;49.272;11.070;2023-12-14T00:41:09;44.82;42.93;49.01;;
66589;Laerm;53447;49.272;11.070;2023-12-14T00:43:34;44.60;42.73;49.35;;
66589;Laerm;53447;49.272;11.070;2023-12-14T00:46:01;44.35;42.13;49.08;;
66589;Laerm;53447;49.272;11.070;2023-12-14T00:48:26;44.25;42.49;57.72;;
66589;Laerm;53447;49.272;11.070;2023-12-14T00:50:51;43.87;42.31;49.16;;
66589;Laerm;53447;49.272;11.070;2023-12-14T00:53:16;45.25;41.99;57.38;;
66589;Laerm;53447;49.272;11.070;2023-12-14T00:55:42;44.23;42.36;48.97;;
66589;Laerm;53447;49.272;11.070;2023-12-14T00:58:07;44.26;42.04;50.94;;
66589;Laerm;53447;49.272;11.070;2023-12-14T01:00:32;43.94;41.32;48.54;;
66589;Laerm;53447;49.272;11.070;2023-12-14T01:02:57;43.75;41.03;48.56;;
66589;Laerm;53447;49.272;11.070;2023-12-14T01:05:23;43.60;42.04;47.93;;
66589;Laerm;53447;49.272;11.070;2023-12-14T01:07:48;43.55;41.94;48.27;;
66589;Laerm;53447;49.272;11.070;2023-12-14T01:10:13;43.50;41.79;47.93;;
66589;Laerm;53447;49.272;11.070;2023-12-14T01:12:38;43.51;41.74;47.08;;
66589;Laerm;53447;49.272;11.070;2023-12-14T01:15:03;43.25;41.32;48.45;;
66589;Laerm;53447;49.272;11.070;2023-12-14T01:17:29;43.34;41.64;47.11;;
66589;Laerm;53447;49.272;11.070;2023-12-14T01:19:54;43.28;41.64;48.30;;
66589;Laerm;53447;49.272;11.070;2023-12-14T01:22:19;43.09;41.48;46.48;;
66589;Laerm;53447;49.272;11.070;2023-12-14T01:24:45;43.01;41.43;47.10;;
66589;Laerm;53447;49.272;11.070;2023-12-14T01:27:10;42.94;41.48;47.48;;
66589;Laerm;53447;49.272;11.070;2023-12-14T01:29:38;43.21;41.26;47.04;;
66589;Laerm;53447;49.272;11.070;2023-12-14T01:32:04;43.80;42.18;46.65;;
66589;Laerm;53447;49.272;11.070;2023-12-14T01:34:29;43.75;41.59;46.66;;
66589;Laerm;53447;49.272;11.070;2023-12-14T01:36:54;43.49;41.43;46.89;;
66589;Laerm;53447;49.272;11.070;2023-12-14T01:39:19;43.19;40.18;45.96;;
66589;Laerm;53447;49.272;11.070;2023-12-14T01:41:44;43.10;40.72;46.82;;
66589;Laerm;53447;49.272;11.070;2023-12-14T01:44:10;43.77;41.48;48.45;;
66589;Laerm;53447;49.272;11.070;2023-12-14T01:46:35;42.83;41.03;45.62;;
66589;Laerm;53447;49.272;11.070;2023-12-14T01:49:00;42.89;40.97;46.26;;
66589;Laerm;53447;49.272;11.070;2023-12-14T01:51:25;43.00;41.09;46.05;;
66589;Laerm;53447;49.272;11.070;2023-12-14T01:53:50;43.20;41.26;46.09;;
66589;Laerm;53447;49.272;11.070;2023-12-14T01:56:16;49.45;40.32;67.35;;
66589;Laerm;53447;49.272;11.070;2023-12-14T01:58:41;43.09;40.91;46.11;;
66589;Laerm;53447;49.272;11.070;2023-12-14T02:03:51;43.06;40.97;46.11;;
66589;Laerm;53447;49.272;11.070;2023-12-14T02:06:17;43.56;41.26;46.36;;
66589;Laerm;53447;49.272;11.070;2023-12-14T02:08:42;43.94;41.89;47.40;;
66589;Laerm;53447;49.272;11.070;2023-12-14T02:11:08;43.36;41.21;46.50;;
66589;Laerm;53447;49.272;11.070;2023-12-14T02:13:33;43.05;41.32;46.78;;
66589;Laerm;53447;49.272;11.070;2023-12-14T02:15:58;43.02;41.48;46.18;;
66589;Laerm;53447;49.272;11.070;2023-12-14T02:18:23;43.11;41.48;47.02;;
66589;Laerm;53447;49.272;11.070;2023-12-14T02:20:49;43.25;41.59;46.62;;
66589;Laerm;53447;49.272;11.070;2023-12-14T02:23:14;43.06;41.54;46.40;;
66589;Laerm;53447;49.272;11.070;2023-12-14T02:25:39;43.23;41.69;47.27;;
66589;Laerm;53447;49.272;11.070;2023-12-14T02:28:04;43.39;41.79;46.95;;
66589;Laerm;53447;49.272;11.070;2023-12-14T02:30:30;43.30;41.59;46.34;;
66589;Laerm;53447;49.272;11.070;2023-12-14T02:32:55;43.45;41.84;47.20;;
66589;Laerm;53447;49.272;11.070;2023-12-14T02:35:20;43.45;41.99;47.89;;
66589;Laerm;53447;49.272;11.070;2023-12-14T02:37:45;44.03;42.49;46.95;;
66589;Laerm;53447;49.272;11.070;2023-12-14T02:40:11;43.92;42.30;48.25;;
66589;Laerm;53447;49.272;11.070;2023-12-14T02:42:36;43.60;41.84;47.60;;
66589;Laerm;53447;49.272;11.070;2023-12-14T02:45:01;43.81;40.85;47.46;;
66589;Laerm;53447;49.272;11.070;2023-12-14T02:47:27;43.65;41.89;47.97;;
66589;Laerm;53447;49.272;11.070;2023-12-14T02:49:53;43.57;40.25;47.68;;
66589;Laerm;53447;49.272;11.070;2023-12-14T02:52:18;43.65;41.79;47.05;;
66589;Laerm;53447;49.272;11.070;2023-12-14T02:54:43;43.85;38.93;48.94;;
66589;Laerm;53447;49.272;11.070;2023-12-14T02:57:09;43.39;40.18;47.52;;
66589;Laerm;53447;49.272;11.070;2023-12-14T02:59:34;43.53;41.99;46.98;;
66589;Laerm;53447;49.272;11.070;2023-12-14T03:01:59;43.58;41.21;47.35;;
66589;Laerm;53447;49.272;11.070;2023-12-14T03:04:25;43.57;40.39;46.89;;
66589;Laerm;53447;49.272;11.070;2023-12-14T03:06:50;43.49;40.03;46.78;;
66589;Laerm;53447;49.272;11.070;2023-12-14T03:09:15;43.53;41.69;48.22;;
66589;Laerm;53447;49.272;11.070;2023-12-14T03:11:41;43.74;39.88;47.23;;
66589;Laerm;53447;49.272;11.070;2023-12-14T03:14:06;43.97;42.27;47.52;;
66589;Laerm;53447;49.272;11.070;2023-12-14T03:16:31;43.92;41.74;48.29;;
66589;Laerm;53447;49.272;11.070;2023-12-14T03:18:56;43.55;41.03;47.59;;
66589;Laerm;53447;49.272;11.070;2023-12-14T03:21:22;43.54;40.59;46.96;;
66589;Laerm;53447;49.272;11.070;2023-12-14T03:23:47;46.90;41.94;61.50;;
66589;Laerm;53447;49.272;11.070;2023-12-14T03:26:12;43.79;41.69;51.76;;
66589;Laerm;53447;49.272;11.070;2023-12-14T03:28:37;43.03;41.38;46.91;;
66589;Laerm;53447;49.272;11.070;2023-12-14T03:31:03;44.00;41.03;49.51;;
66589;Laerm;53447;49.272;11.070;2023-12-14T03:33:28;42.76;39.72;46.41;;
66589;Laerm;53447;49.272;11.070;2023-12-14T03:35:54;42.74;39.56;45.86;;
66589;Laerm;53447;49.272;11.070;2023-12-14T03:38:19;42.91;39.12;46.29;;
66589;Laerm;53447;49.272;11.070;2023-12-14T03:40:45;44.88;42.36;48.09;;
66589;Laerm;53447;49.272;11.070;2023-12-14T03:43:10;44.55;42.04;46.73;;
66589;Laerm;53447;49.272;11.070;2023-12-14T03:45:35;43.80;41.69;45.78;;
66589;Laerm;53447;49.272;11.070;2023-12-14T03:48:00;42.66;40.91;44.93;;
66589;Laerm;53447;49.272;11.070;2023-12-14T03:50:25;42.75;40.85;47.41;;
66589;Laerm;53447;49.272;11.070;2023-12-14T03:52:51;42.26;40.59;44.22;;
66589;Laerm;53447;49.272;11.070;2023-12-14T03:55:16;42.39;40.66;44.22;;
66589;Laerm;53447;49.272;11.070;2023-12-14T03:57:41;42.88;40.91;45.00;;
66589;Laerm;53447;49.272;11.070;2023-12-14T04:00:10;43.06;41.26;46.40;;
66589;Laerm;53447;49.272;11.070;2023-12-14T04:02:36;43.11;41.54;45.02;;
66589;Laerm;53447;49.272;11.070;2023-12-14T04:05:01;43.00;40.32;45.30;;
66589;Laerm;53447;49.272;11.070;2023-12-14T04:07:26;43.15;40.25;45.98;;
66589;Laerm;53447;49.272;11.070;2023-12-14T04:09:51;42.86;41.15;46.57;;
66589;Laerm;53447;49.272;11.070;2023-12-14T04:12:16;43.01;41.32;46.63;;
66589;Laerm;53447;49.272;11.070;2023-12-14T04:14:42;43.05;40.85;47.31;;
66589;Laerm;53447;49.272;11.070;2023-12-14T04:17:07;42.69;40.85;55.94;;
66589;Laerm;53447;49.272;11.070;2023-12-14T04:19:32;43.43;41.15;46.68;;
66589;Laerm;53447;49.272;11.070;2023-12-14T04:21:57;43.54;41.59;46.40;;
66589;Laerm;53447;49.272;11.070;2023-12-14T04:24:23;43.68;41.84;46.05;;
66589;Laerm;53447;49.272;11.070;2023-12-14T04:26:48;42.97;41.48;47.40;;
66589;Laerm;53447;49.272;11.070;2023-12-14T04:29:13;42.84;41.38;46.78;;
66589;Laerm;53447;49.272;11.070;2023-12-14T04:31:38;43.26;41.45;51.25;;
66589;Laerm;53447;49.272;11.070;2023-12-14T04:34:04;43.95;40.66;48.67;;
66589;Laerm;53447;49.272;11.070;2023-12-14T04:36:29;43.02;40.69;48.41;;
66589;Laerm;53447;49.272;11.070;2023-12-14T04:38:54;43.21;41.24;47.54;;
66589;Laerm;53447;49.272;11.070;2023-12-14T04:41:19;43.79;41.74;47.05;;
66589;Laerm;53447;49.272;11.070;2023-12-14T04:43:44;44.35;41.59;50.65;;
66589;Laerm;53447;49.272;11.070;2023-12-14T04:46:11;43.62;41.09;46.71;;
66589;Laerm;53447;49.272;11.070;2023-12-14T04:48:36;42.85;40.97;55.64;;
66589;Laerm;53447;49.272;11.070;2023-12-14T04:51:01;44.15;41.32;50.71;;
66589;Laerm;53447;49.272;11.070;2023-12-14T04:53:26;42.74;41.15;45.70;;
66589;Laerm;53447;49.272;11.070;2023-12-14T04:55:51;42.62;40.79;47.66;;
66589;Laerm;53447;49.272;11.070;2023-12-14T04:58:17;51.17;40.72;69.59;;
66589;Laerm;53447;49.272;11.070;2023-12-14T05:00:42;43.49;40.85;51.38;;
66589;Laerm;53447;49.272;11.070;2023-12-14T05:03:07;52.68;41.74;70.81;;
66589;Laerm;53447;49.272;11.070;2023-12-14T05:05:32;43.96;41.48;51.54;;
66589;Laerm;53447;49.272;11.070;2023-12-14T05:07:58;44.48;41.48;48.62;;
66589;Laerm;53447;49.272;11.070;2023-12-14T05:10:23;44.01;41.26;46.04;;
66589;Laerm;53447;49.272;11.070;2023-12-14T05:12:48;44.60;41.99;46.36;;
66589;Laerm;53447;49.272;11.070;2023-12-14T05:15:13;45.22;41.64;55.12;;
66589;Laerm;53447;49.272;11.070;2023-12-14T05:17:39;53.49;43.95;71.90;;
66589;Laerm;53447;49.272;11.070;2023-12-14T05:20:07;43.97;41.69;47.05;;
66589;Laerm;53447;49.272;11.070;2023-12-14T05:22:33;45.67;42.61;54.22;;
66589;Laerm;53447;49.272;11.070;2023-12-14T05:24:58;44.95;43.29;47.68;;
66589;Laerm;53447;49.272;11.070;2023-12-14T05:27:24;49.48;42.49;65.50;;
66589;Laerm;53447;49.272;11.070;2023-12-14T05:29:49;43.21;40.39;52.73;;
66589;Laerm;53447;49.272;11.070;2023-12-14T05:32:15;43.09;41.09;49.33;;
66589;Laerm;53447;49.272;11.070;2023-12-14T05:34:40;43.42;41.32;53.17;;
66589;Laerm;53447;49.272;11.070;2023-12-14T05:37:05;45.18;41.32;59.89;;
66589;Laerm;53447;49.272;11.070;2023-12-14T05:39:30;43.21;41.15;46.65;;
66589;Laerm;53447;49.272;11.070;2023-12-14T05:41:55;43.78;40.97;46.81;;
66589;Laerm;53447;49.272;11.070;2023-12-14T05:44:21;44.70;42.31;53.96;;
66589;Laerm;53447;49.272;11.070;2023-12-14T05:46:47;50.81;41.84;67.65;;
66589;Laerm;53447;49.272;11.070;2023-12-14T05:49:13;46.43;41.15;63.46;;
66589;Laerm;53447;49.272;11.070;2023-12-14T05:51:38;48.12;41.21;63.25;;
66589;Laerm;53447;49.272;11.070;2023-12-14T05:54:04;43.46;41.32;56.32;;
66589;Laerm;53447;49.272;11.070;2023-12-14T05:56:29;43.47;40.97;46.13;;
66589;Laerm;53447;49.272;11.070;2023-12-14T05:58:55;55.58;40.72;71.42;;
66589;Laerm;53447;49.272;11.070;2023-12-14T06:01:20;50.42;41.43;69.26;;
66589;Laerm;53447;49.272;11.070;2023-12-14T06:03:45;43.60;41.38;52.03;;
66589;Laerm;53447;49.272;11.070;2023-12-14T06:06:11;54.21;41.79;70.16;;
66589;Laerm;53447;49.272;11.070;2023-12-14T06:08:38;52.75;41.54;68.58;;
66589;Laerm;53447;49.272;11.070;2023-12-14T06:11:03;43.36;41.32;46.40;;
66589;Laerm;53447;49.272;11.070;2023-12-14T06:13:30;54.86;41.15;72.94;;
66589;Laerm;53447;49.272;11.070;2023-12-14T06:15:56;51.27;41.26;65.52;;
66589;Laerm;53447;49.272;11.070;2023-12-14T06:18:21;47.84;41.43;61.42;;
66589;Laerm;53447;49.272;11.070;2023-12-14T06:20:46;50.08;41.59;66.02;;
66589;Laerm;53447;49.272;11.070;2023-12-14T06:23:11;43.82;41.26;47.11;;
66589;Laerm;53447;49.272;11.070;2023-12-14T06:25:36;46.93;43.12;64.66;;
66589;Laerm;53447;49.272;11.070;2023-12-14T06:28:02;48.95;43.51;67.01;;
66589;Laerm;53447;49.272;11.070;2023-12-14T06:30:28;43.80;40.97;56.44;;
66589;Laerm;53447;49.272;11.070;2023-12-14T06:32:53;49.80;40.85;66.93;;
66589;Laerm;53447;49.272;11.070;2023-12-14T06:35:18;52.27;41.21;68.76;;
66589;Laerm;53447;49.272;11.070;2023-12-14T06:37:43;53.42;41.09;69.14;;
66589;Laerm;53447;49.272;11.070;2023-12-14T06:40:09;42.90;40.18;53.01;;
66589;Laerm;53447;49.272;11.070;2023-12-14T06:42:34;53.58;40.79;73.47;;
66589;Laerm;53447;49.272;11.070;2023-12-14T06:45:01;42.69;40.91;45.26;;
66589;Laerm;53447;49.272;11.070;2023-12-14T06:47:27;45.01;40.79;64.81;;
66589;Laerm;53447;49.272;11.070;2023-12-14T06:49:52;56.87;41.26;72.35;;
66589;Laerm;53447;49.272;11.070;2023-12-14T06:52:18;46.60;41.69;62.30;;
66589;Laerm;53447;49.272;11.070;2023-12-14T06:54:43;54.38;42.44;67.60;;
66589;Laerm;53447;49.272;11.070;2023-12-14T06:57:08;50.74;43.67;67.83;;
66589;Laerm;53447;49.272;11.070;2023-12-14T06:59:33;60.22;42.61;79.71;;
66589;Laerm;53447;49.272;11.070;2023-12-14T07:01:59;54.64;42.04;74.43;;
66589;Laerm;53447;49.272;11.070;2023-12-14T07:04:24;51.41;42.31;76.42;;
66589;Laerm;53447;49.272;11.070;2023-12-14T07:06:50;53.10;42.08;69.75;;
66589;Laerm;53447;49.272;11.070;2023-12-14T07:09:15;46.37;41.32;63.57;;
66589;Laerm;53447;49.272;11.070;2023-12-14T07:11:40;45.72;41.21;62.61;;
66589;Laerm;53447;49.272;11.070;2023-12-14T07:14:05;47.08;41.38;71.85;;
66589;Laerm;53447;49.272;11.070;2023-12-14T07:16:30;44.62;41.21;62.46;;
66589;Laerm;53447;49.272;11.070;2023-12-14T07:18:56;44.76;41.03;55.52;;
66589;Laerm;53447;49.272;11.070;2023-12-14T07:21:21;52.91;41.59;70.09;;
66589;Laerm;53447;49.272;11.070;2023-12-14T07:23:47;52.23;40.91;71.50;;
66589;Laerm;53447;49.272;11.070;2023-12-14T07:26:13;50.89;42.53;67.15;;
66589;Laerm;53447;49.272;11.070;2023-12-14T07:28:38;51.18;42.44;69.57;;
66589;Laerm;53447;49.272;11.070;2023-12-14T07:31:03;52.42;41.59;69.02;;
66589;Laerm;53447;49.272;11.070;2023-12-14T07:33:28;44.37;41.48;56.00;;
66589;Laerm;53447;49.272;11.070;2023-12-14T07:35:54;44.03;41.32;56.40;;
66589;Laerm;53447;49.272;11.070;2023-12-14T07:38:19;53.56;42.44;72.51;;
66589;Laerm;53447;49.272;11.070;2023-12-14T07:40:44;56.80;41.48;74.60;;
66589;Laerm;53447;49.272;11.070;2023-12-14T07:43:11;43.64;41.32;47.95;;
66589;Laerm;53447;49.272;11.070;2023-12-14T07:45:36;43.83;41.38;52.06;;
66589;Laerm;53447;49.272;11.070;2023-12-14T07:48:02;57.00;41.74;72.97;;
66589;Laerm;53447;49.272;11.070;2023-12-14T07:50:29;51.09;42.73;64.74;;
66589;Laerm;53447;49.272;11.070;2023-12-14T07:52:54;55.72;42.04;73.53;;
66589;Laerm;53447;49.272;11.070;2023-12-14T07:55:19;58.43;42.01;73.18;;
66589;Laerm;53447;49.272;11.070;2023-12-14T07:57:45;47.56;41.43;64.48;;
66589;Laerm;53447;49.272;11.070;2023-12-14T08:00:10;54.77;41.38;72.42;;
66589;Laerm;53447;49.272;11.070;2023-12-14T08:02:36;47.80;41.15;66.58;;
66589;Laerm;53447;49.272;11.070;2023-12-14T08:05:01;54.97;41.48;69.84;;
66589;Laerm;53447;49.272;11.070;2023-12-14T08:07:26;53.33;41.38;72.58;;
66589;Laerm;53447;49.272;11.070;2023-12-14T08:09:55;50.37;41.15;68.33;;
66589;Laerm;53447;49.272;11.070;2023-12-14T08:12:20;47.85;41.54;59.99;;
66589;Laerm;53447;49.272;11.070;2023-12-14T08:14:47;48.84;42.04;66.05;;
66589;Laerm;53447;49.272;11.070;2023-12-14T08:17:12;51.10;42.44;62.34;;
66589;Laerm;53447;49.272;11.070;2023-12-14T08:19:37;52.81;42.44;64.19;;
66589;Laerm;53447;49.272;11.070;2023-12-14T08:22:02;50.82;41.69;62.38;;
66589;Laerm;53447;49.272;11.070;2023-12-14T08:24:28;52.06;40.18;71.35;;
66589;Laerm;53447;49.272;11.070;2023-12-14T08:26:53;50.92;41.89;67.76;;
66589;Laerm;53447;49.272;11.070;2023-12-14T08:29:18;54.22;41.64;70.47;;
66589;Laerm;53447;49.272;11.070;2023-12-14T08:31:44;58.03;41.99;77.81;;
66589;Laerm;53447;49.272;11.070;2023-12-14T08:34:09;54.50;42.57;69.34;;
66589;Laerm;53447;49.272;11.070;2023-12-14T08:36:34;44.93;42.08;60.48;;
66589;Laerm;53447;49.272;11.070;2023-12-14T08:38:59;45.81;43.37;61.80;;
66589;Laerm;53447;49.272;11.070;2023-12-14T08:41:25;51.08;41.99;68.67;;
66589;Laerm;53447;49.272;11.070;2023-12-14T08:43:50;43.75;41.64;56.42;;
66589;Laerm;53447;49.272;11.070;2023-12-14T08:46:15;43.32;38.31;57.30;;
66589;Laerm;53447;49.272;11.070;2023-12-14T08:48:40;42.97;37.71;58.86;;
66589;Laerm;53447;49.272;11.070;2023-12-14T08:51:06;51.91;40.18;67.73;;
66589;Laerm;53447;49.272;11.070;2023-12-14T08:53:31;45.26;40.11;58.59;;
66589;Laerm;53447;49.272;11.070;2023-12-14T08:55:56;44.27;40.39;57.46;;
66589;Laerm;53447;49.272;11.070;2023-12-14T08:58:21;46.45;42.22;63.82;;
66589;Laerm;53447;49.272;11.070;2023-12-14T09:00:47;46.78;41.59;62.61;;
66589;Laerm;53447;49.272;11.070;2023-12-14T09:03:12;48.39;41.43;63.26;;
66589;Laerm;53447;49.272;11.070;2023-12-14T09:05:37;42.85;40.53;45.30;;
66589;Laerm;53447;49.272;11.070;2023-12-14T09:08:06;46.59;40.72;73.13;;
66589;Laerm;53447;49.272;11.070;2023-12-14T09:10:32;42.47;40.85;44.70;;
66589;Laerm;53447;49.272;11.070;2023-12-14T09:12:58;42.67;39.56;50.79;;
66589;Laerm;53447;49.272;11.070;2023-12-14T09:15:25;42.68;39.96;60.84;;
66589;Laerm;53447;49.272;11.070;2023-12-14T09:17:50;43.82;39.56;66.38;;
66589;Laerm;53447;49.272;11.070;2023-12-14T09:20:15;48.41;39.30;68.77;;
66589;Laerm;53447;49.272;11.070;2023-12-14T09:22:41;50.55;40.32;71.57;;
66589;Laerm;53447;49.272;11.070;2023-12-14T09:25:07;44.89;39.61;64.44;;
66589;Laerm;53447;49.272;11.070;2023-12-14T09:27:34;42.93;39.56;60.41;;
66589;Laerm;53447;49.272;11.070;2023-12-14T09:29:59;41.48;38.42;54.59;;
66589;Laerm;53447;49.272;11.070;2023-12-14T09:32:24;42.14;38.20;52.39;;
66589;Laerm;53447;49.272;11.070;2023-12-14T09:34:50;44.30;39.72;56.99;;
66589;Laerm;53447;49.272;11.070;2023-12-14T09:37:17;44.82;39.48;58.62;;
66589;Laerm;53447;49.272;11.070;2023-12-14T09:39:42;44.17;39.64;64.70;;
66589;Laerm;53447;49.272;11.070;2023-12-14T09:42:07;41.99;39.48;51.99;;
66589;Laerm;53447;49.272;11.070;2023-12-14T09:44:33;49.22;38.93;66.03;;
66589;Laerm;53447;49.272;11.070;2023-12-14T09:47:00;48.54;39.30;65.32;;
66589;Laerm;53447;49.272;11.070;2023-12-14T09:49:26;50.58;35.62;69.48;;
66589;Laerm;53447;49.272;11.070;2023-12-14T09:51:54;41.92;38.53;61.22;;
66589;Laerm;53447;49.272;11.070;2023-12-14T09:54:19;42.84;38.08;52.41;;
66589;Laerm;53447;49.272;11.070;2023-12-14T09:56:45;54.18;36.87;73.00;;
66589;Laerm;53447;49.272;11.070;2023-12-14T09:59:10;50.69;39.03;68.30;;
66589;Laerm;53447;49.272;11.070;2023-12-14T10:01:36;41.77;37.45;55.21;;
66589;Laerm;53447;49.272;11.070;2023-12-14T10:04:08;41.55;36.38;46.86;;
66589;Laerm;53447;49.272;11.070;2023-12-14T10:06:33;41.69;37.96;49.18;;
66589;Laerm;53447;49.272;11.070;2023-12-14T10:08:59;48.77;37.58;64.25;;
66589;Laerm;53447;49.272;11.070;2023-12-14T10:11:24;45.80;37.84;57.87;;
66589;Laerm;53447;49.272;11.070;2023-12-14T10:13:49;45.88;38.20;57.46;;
66589;Laerm;53447;49.272;11.070;2023-12-14T10:16:27;47.49;39.03;62.66;;
66589;Laerm;53447;49.272;11.070;2023-12-14T10:18:53;49.40;41.15;66.38;;
66589;Laerm;53447;49.272;11.070;2023-12-14T10:21:20;54.63;40.66;69.61;;
66589;Laerm;53447;49.272;11.070;2023-12-14T10:23:46;44.72;40.66;61.75;;
66589;Laerm;53447;49.272;11.070;2023-12-14T10:26:11;55.09;38.93;76.98;;
66589;Laerm;53447;49.272;11.070;2023-12-14T10:28:39;45.32;40.46;57.99;;
66589;Laerm;53447;49.272;11.070;2023-12-14T10:31:04;42.20;38.31;45.43;;
66589;Laerm;53447;49.272;11.070;2023-12-14T10:33:30;42.55;39.30;58.67;;
66589;Laerm;53447;49.272;11.070;2023-12-14T10:35:55;42.95;39.80;52.48;;
66589;Laerm;53447;49.272;11.070;2023-12-14T10:38:21;52.48;39.80;72.98;;
66589;Laerm;53447;49.272;11.070;2023-12-14T10:40:47;42.98;40.32;57.79;;
66589;Laerm;53447;49.272;11.070;2023-12-14T10:43:12;43.66;40.32;55.65;;
66589;Laerm;53447;49.272;11.070;2023-12-14T10:45:38;42.87;39.64;54.38;;
66589;Laerm;53447;49.272;11.070;2023-12-14T10:48:04;42.77;37.96;50.24;;
66589;Laerm;53447;49.272;11.070;2023-12-14T10:50:29;51.81;40.03;67.71;;
66589;Laerm;53447;49.272;11.070;2023-12-14T10:52:55;42.41;38.83;54.66;;
66589;Laerm;53447;49.272;11.070;2023-12-14T10:57:51;41.50;36.87;51.80;;
66589;Laerm;53447;49.272;11.070;2023-12-14T11:00:17;43.53;38.63;58.23;;
66589;Laerm;53447;49.272;11.070;2023-12-14T11:02:45;44.10;39.56;54.31;;
66589;Laerm;53447;49.272;11.070;2023-12-14T11:05:14;45.31;39.48;59.58;;
66589;Laerm;53447;49.272;11.070;2023-12-14T11:10:09;54.26;37.45;72.88;;
66589;Laerm;53447;49.272;11.070;2023-12-14T11:12:35;49.68;37.71;67.13;;
66589;Laerm;53447;49.272;11.070;2023-12-14T11:15:07;48.06;38.83;71.23;;
66589;Laerm;53447;49.272;11.070;2023-12-14T11:17:34;45.15;38.93;57.06;;
66589;Laerm;53447;49.272;11.070;2023-12-14T11:20:23;50.63;38.63;69.67;;
66589;Laerm;53447;49.272;11.070;2023-12-14T11:22:46;48.00;38.53;60.92;;
66589;Laerm;53447;49.272;11.070;2023-12-14T11:25:11;50.60;37.71;68.33;;
66589;Laerm;53447;49.272;11.070;2023-12-14T11:27:37;41.18;37.17;48.35;;
66589;Laerm;53447;49.272;11.070;2023-12-14T11:30:07;43.78;37.96;68.25;;
66589;Laerm;53447;49.272;11.070;2023-12-14T11:32:36;50.82;37.58;67.22;;
66589;Laerm;53447;49.272;11.070;2023-12-14T11:35:01;42.99;38.63;58.61;;
66589;Laerm;53447;49.272;11.070;2023-12-14T11:37:26;56.25;39.30;74.19;;
66589;Laerm;53447;49.272;11.070;2023-12-14T11:39:53;51.08;35.41;69.61;;
66589;Laerm;53447;49.272;11.070;2023-12-14T11:42:19;41.12;36.02;53.81;;
66589;Laerm;53447;49.272;11.070;2023-12-14T11:44:45;42.42;36.02;61.30;;
66589;Laerm;53447;49.272;11.070;2023-12-14T11:47:10;41.95;36.87;53.49;;
66589;Laerm;53447;49.272;11.070;2023-12-14T11:49:35;49.95;35.19;68.11;;
66589;Laerm;53447;49.272;11.070;2023-12-14T11:52:02;42.39;35.62;58.84;;
66589;Laerm;53447;49.272;11.070;2023-12-14T11:54:27;42.45;37.45;54.50;;
66589;Laerm;53447;49.272;11.070;2023-12-14T11:56:52;40.65;34.70;53.22;;
66589;Laerm;53447;49.272;11.070;2023-12-14T11:59:18;52.95;36.38;71.68;;
66589;Laerm;53447;49.272;11.070;2023-12-14T12:01:53;44.58;38.53;55.57;;
66589;Laerm;53447;49.272;11.070;2023-12-14T12:04:19;44.66;38.42;58.68;;
66589;Laerm;53447;49.272;11.070;2023-12-14T12:06:44;53.02;38.42;70.85;;
66589;Laerm;53447;49.272;11.070;2023-12-14T12:09:11;49.53;39.64;62.47;;
66589;Laerm;53447;49.272;11.070;2023-12-14T12:11:37;50.05;39.83;62.85;;
66589;Laerm;53447;49.272;11.070;2023-12-14T12:14:02;48.96;40.66;63.43;;
66589;Laerm;53447;49.272;11.070;2023-12-14T12:16:27;47.86;39.21;60.89;;
66589;Laerm;53447;49.272;11.070;2023-12-14T12:18:53;48.55;39.12;62.09;;
66589;Laerm;53447;49.272;11.070;2023-12-14T12:21:18;52.72;40.03;67.04;;
66589;Laerm;53447;49.272;11.070;2023-12-14T12:23:43;53.01;37.84;71.80;;
66589;Laerm;53447;49.272;11.070;2023-12-14T12:26:09;41.90;38.31;49.23;;
66589;Laerm;53447;49.272;11.070;2023-12-14T12:28:34;41.58;36.55;56.02;;
66589;Laerm;53447;49.272;11.070;2023-12-14T12:30:59;42.25;38.08;46.11;;
66589;Laerm;53447;49.272;11.070;2023-12-14T12:33:26;52.09;37.17;70.66;;
66589;Laerm;53447;49.272;11.070;2023-12-14T12:35:52;47.54;37.71;61.74;;
66589;Laerm;53447;49.272;11.070;2023-12-14T12:38:17;44.00;39.80;67.06;;
66589;Laerm;53447;49.272;11.070;2023-12-14T12:40:43;53.26;38.42;70.19;;
66589;Laerm;53447;49.272;11.070;2023-12-14T12:43:09;49.25;38.53;71.18;;
66589;Laerm;53447;49.272;11.070;2023-12-14T12:45:35;54.29;38.93;72.34;;
66589;Laerm;53447;49.272;11.070;2023-12-14T12:48:00;52.68;39.64;69.24;;
66589;Laerm;53447;49.272;11.070;2023-12-14T12:50:28;49.64;40.72;67.44;;
66589;Laerm;53447;49.272;11.070;2023-12-14T12:52:53;55.51;40.03;83.14;;
66589;Laerm;53447;49.272;11.070;2023-12-14T12:55:18;54.40;40.11;69.42;;
66589;Laerm;53447;49.272;11.070;2023-12-14T12:57:43;52.39;39.96;68.37;;
66589;Laerm;53447;49.272;11.070;2023-12-14T13:00:09;51.82;39.72;69.55;;
66589;Laerm;53447;49.272;11.070;2023-12-14T13:02:38;42.97;40.18;55.47;;
66589;Laerm;53447;49.272;11.070;2023-12-14T13:05:04;54.10;39.56;74.77;;
66589;Laerm;53447;49.272;11.070;2023-12-14T13:07:30;41.74;39.48;53.47;;
66589;Laerm;53447;49.272;11.070;2023-12-14T13:09:56;41.64;39.12;46.15;;
66589;Laerm;53447;49.272;11.070;2023-12-14T13:12:21;48.46;39.56;68.70;;
66589;Laerm;53447;49.272;11.070;2023-12-14T13:14:46;51.02;38.73;65.14;;
66589;Laerm;53447;49.272;11.070;2023-12-14T13:17:11;42.47;39.96;51.52;;
66589;Laerm;53447;49.272;11.070;2023-12-14T13:19:37;43.30;37.31;55.38;;
66589;Laerm;53447;49.272;11.070;2023-12-14T13:22:02;48.20;37.58;66.92;;
66589;Laerm;53447;49.272;11.070;2023-12-14T13:24:27;43.69;39.13;55.37;;
66589;Laerm;53447;49.272;11.070;2023-12-14T13:26:53;52.17;38.73;70.68;;
66589;Laerm;53447;49.272;11.070;2023-12-14T13:29:19;41.02;37.24;51.79;;
66589;Laerm;53447;49.272;11.070;2023-12-14T13:31:45;42.14;37.58;53.38;;